Time;durP1;ratioP1;P1;durP2;ratioP2;P2;SDS_P1;SDS_P2;PMS_P1;PMS_P2;Temp;Humidity;BMP_temperature;BMP_pressure;BME280_temperature;BME280_humidity;BME280_pressure;Samples;Min_cycle;Max_cycle;Signal;HPM_P1;HPM_P2
2022/05/28 00:01:35;;;;;;;13.35;3.78;;;9.20;99.90;;;;;;4939312;29;20462;-92
2022/05/28 00:04:05;;;;;;;12.23;3.67;;;9.20;99.90;;;;;;4941271;29;20208;-93
2022/05/28 00:06:36;;;;;;;30.65;14.75;;;9.40;99.90;;;;;;4951125;29;20197;-91
2022/05/28 00:09:05;;;;;;;8.45;3.25;;;9.50;99.90;;;;;;4939496;29;20297;-91
2022/05/28 00:11:36;;;;;;;12.15;4.05;;;9.60;99.90;;;;;;4938571;29;20297;-93
2022/05/28 00:14:05;;;;;;;9.48;3.10;;;9.60;99.90;;;;;;4940707;29;20267;-91
2022/05/28 00:16:34;;;;;;;18.08;4.30;;;9.60;99.90;;;;;;4936915;29;20634;-92
2022/05/28 00:19:03;;;;;;;14.55;2.67;;;9.40;99.90;;;;;;4937490;29;20473;-92
2022/05/28 00:21:32;;;;;;;6.22;2.00;;;9.30;99.90;;;;;;4943431;29;20212;-91
2022/05/28 00:24:00;;;;;;;11.57;2.20;;;9.10;99.90;;;;;;4937290;29;20292;-93
2022/05/28 00:26:28;;;;;;;8.95;2.00;;;9.00;99.90;;;;;;4936556;29;20209;-93
2022/05/28 00:28:58;;;;;;;5.55;1.77;;;8.90;99.90;;;;;;4946410;29;20214;-93
2022/05/28 00:31:26;;;;;;;6.57;1.67;;;8.70;99.90;;;;;;4946240;29;20353;-92
2022/05/28 00:33:54;;;;;;;4.38;1.20;;;8.70;99.90;;;;;;4942678;29;20209;-91
2022/05/28 00:36:23;;;;;;;11.70;2.03;;;8.60;99.90;;;;;;4940936;29;20547;-90
2022/05/28 00:38:52;;;;;;;5.82;1.90;;;8.60;99.90;;;;;;4941700;29;20249;-90
2022/05/28 00:41:20;;;;;;;5.85;1.92;;;8.60;99.90;;;;;;4938677;29;20324;-91
2022/05/28 00:44:07;;;;;;;7.30;2.47;;;8.60;99.90;;;;;;4945561;29;20204;-94
2022/05/28 00:46:59;;;;;;;6.97;2.38;;;8.60;99.90;;;;;;4948890;29;20244;-92
2022/05/28 00:49:38;;;;;;;6.22;1.90;;;8.50;99.90;;;;;;4940883;29;20197;-93
2022/05/28 00:52:08;;;;;;;9.82;2.45;;;8.40;99.90;;;;;;4937514;29;20229;-92
2022/05/28 00:54:41;;;;;;;6.80;1.80;;;8.40;99.90;;;;;;4935890;29;20270;-92
2022/05/28 00:57:10;;;;;;;9.07;2.70;;;8.30;99.90;;;;;;4934328;29;20261;-89
2022/05/28 00:59:38;;;;;;;5.93;2.38;;;8.30;99.90;;;;;;4934346;29;20209;-91
2022/05/28 01:02:16;;;;;;;5.13;1.85;;;8.30;99.90;;;;;;4933254;29;20447;-91
2022/05/28 01:04:52;;;;;;;3.72;1.88;;;8.20;99.90;;;;;;4934559;29;20644;-92
2022/05/28 01:07:30;;;;;;;7.00;1.80;;;8.20;99.90;;;;;;4934761;29;20249;-91
2022/05/28 01:10:04;;;;;;;6.53;2.63;;;8.20;99.90;;;;;;4935745;29;20324;-91
2022/05/28 01:12:39;;;;;;;4.88;2.03;;;8.20;99.90;;;;;;4936477;29;20221;-91
2022/05/28 01:15:13;;;;;;;9.40;2.10;;;8.20;99.90;;;;;;4931124;29;20228;-92
2022/05/28 01:17:46;;;;;;;10.20;2.22;;;8.20;99.90;;;;;;4933817;29;20229;-91
2022/05/28 01:20:21;;;;;;;11.65;1.73;;;8.20;99.90;;;;;;4940478;29;20681;-92
2022/05/28 01:23:10;;;;;;;10.10;2.45;;;8.20;99.90;;;;;;4939612;29;20284;-91
2022/05/28 01:25:57;;;;;;;11.00;2.80;;;8.20;99.90;;;;;;4945171;29;20233;-91
2022/05/28 01:28:35;;;;;;;8.93;2.33;;;8.20;99.90;;;;;;4951711;29;20281;-88
2022/05/28 01:31:06;;;;;;;7.22;4.03;;;8.20;99.90;;;;;;4953150;29;20228;-89
2022/05/28 01:33:35;;;;;;;12.20;2.45;;;8.30;99.90;;;;;;4950347;29;20226;-91
2022/05/28 01:36:07;;;;;;;8.95;2.63;;;8.30;99.90;;;;;;4940342;29;20226;-91
2022/05/28 01:38:37;;;;;;;6.75;2.30;;;8.30;99.90;;;;;;4938964;29;20756;-91
2022/05/28 01:41:07;;;;;;;8.35;2.10;;;8.30;99.90;;;;;;4936864;29;20261;-91
2022/05/28 01:43:40;;;;;;;4.32;1.90;;;8.30;99.90;;;;;;4937808;29;20226;-92
2022/05/28 01:46:12;;;;;;;6.00;2.40;;;8.30;99.90;;;;;;4937354;29;20281;-92
2022/05/28 01:48:44;;;;;;;7.18;2.00;;;8.30;99.90;;;;;;4936944;29;20312;-93
2022/05/28 01:51:14;;;;;;;5.43;1.80;;;8.30;99.90;;;;;;4936109;29;20225;-91
2022/05/28 01:56:30;;;;;;;4.72;1.60;;;8.30;99.90;;;;;;4936214;29;20228;-92
2022/05/28 01:58:59;;;;;;;9.48;1.50;;;8.20;99.90;;;;;;4933995;29;20583;-92
2022/05/28 02:01:28;;;;;;;5.22;1.50;;;8.30;99.90;;;;;;4935279;29;20393;-92
2022/05/28 02:04:00;;;;;;;5.00;1.85;;;8.30;99.90;;;;;;4934931;29;20264;-92
2022/05/28 02:06:28;;;;;;;3.47;1.70;;;8.30;99.90;;;;;;4935399;29;20662;-91
2022/05/28 02:08:57;;;;;;;4.38;2.22;;;8.20;99.90;;;;;;4934884;29;20301;-92
2022/05/28 02:11:27;;;;;;;5.63;1.83;;;8.30;99.90;;;;;;4935446;29;20367;-91
2022/05/28 02:14:04;;;;;;;4.97;2.15;;;8.20;99.90;;;;;;4936334;29;20321;-92
2022/05/28 02:16:41;;;;;;;7.72;1.70;;;8.30;99.90;;;;;;4936127;29;20353;-92
2022/05/28 02:19:18;;;;;;;9.93;1.95;;;8.20;99.90;;;;;;4936252;29;20236;-93
2022/05/28 02:21:54;;;;;;;3.15;1.33;;;8.20;99.90;;;;;;4934392;29;20196;-91
2022/05/28 02:24:24;;;;;;;2.55;1.65;;;8.30;99.90;;;;;;4934877;29;20668;-91
2022/05/28 02:26:55;;;;;;;6.68;1.77;;;8.30;99.90;;;;;;4935029;29;20205;-92
2022/05/28 02:29:26;;;;;;;4.88;2.42;;;8.30;99.90;;;;;;4940078;29;20243;-91
2022/05/28 02:31:54;;;;;;;11.30;2.00;;;8.30;99.90;;;;;;4950198;29;20629;-92
2022/05/28 02:34:22;;;;;;;13.30;2.35;;;8.30;99.90;;;;;;4936324;29;20357;-93
2022/05/28 02:36:52;;;;;;;5.15;1.30;;;8.30;99.90;;;;;;4936040;29;20249;-93
2022/05/28 02:39:21;;;;;;;4.80;1.95;;;8.30;99.90;;;;;;4936396;29;20642;-94
2022/05/28 02:41:49;;;;;;;5.30;1.70;;;8.30;99.90;;;;;;4937300;29;20277;-93
2022/05/28 02:44:17;;;;;;;11.43;2.35;;;8.20;99.90;;;;;;4936332;29;20232;-94
2022/05/28 02:46:46;;;;;;;9.48;1.50;;;8.30;99.90;;;;;;4936644;29;20213;-92
2022/05/28 02:49:15;;;;;;;5.72;1.70;;;8.30;99.90;;;;;;4935980;29;20264;-93
2022/05/28 02:51:43;;;;;;;5.55;1.58;;;8.20;99.90;;;;;;4936534;29;20242;-91
2022/05/28 02:54:11;;;;;;;4.65;1.60;;;8.00;99.90;;;;;;4936100;29;20658;-91
2022/05/28 02:56:39;;;;;;;4.25;1.83;;;8.00;99.90;;;;;;4936960;29;20201;-92
2022/05/28 02:59:07;;;;;;;7.30;1.83;;;8.00;99.90;;;;;;4937015;29;20226;-92
2022/05/28 03:01:36;;;;;;;6.53;1.55;;;7.90;99.90;;;;;;4936874;29;20292;-91
2022/05/28 03:04:07;;;;;;;11.18;2.10;;;7.90;99.90;;;;;;4937230;29;20209;-94
2022/05/28 03:06:37;;;;;;;7.05;2.72;;;7.90;99.90;;;;;;4937460;29;20230;-91
2022/05/28 03:09:06;;;;;;;8.20;2.33;;;7.90;99.90;;;;;;4938966;29;20304;-91
2022/05/28 03:11:36;;;;;;;12.00;2.05;;;7.90;99.90;;;;;;4937698;29;20222;-92
2022/05/28 03:14:04;;;;;;;6.75;1.92;;;7.90;99.90;;;;;;4936330;29;20238;-92
2022/05/28 03:16:33;;;;;;;12.93;2.42;;;7.90;99.90;;;;;;4938049;29;20523;-92
2022/05/28 03:19:01;;;;;;;6.07;2.38;;;7.90;99.90;;;;;;4937204;29;20476;-90
2022/05/28 03:21:31;;;;;;;13.68;2.47;;;8.00;99.90;;;;;;4941163;29;20618;-93
2022/05/28 03:24:00;;;;;;;11.48;2.65;;;8.00;99.90;;;;;;4940239;29;20198;-92
2022/05/28 03:26:30;;;;;;;11.98;2.90;;;8.00;99.90;;;;;;4937573;29;20482;-93
2022/05/28 03:28:59;;;;;;;16.17;2.92;;;8.10;99.90;;;;;;4933740;29;20317;-91
2022/05/28 03:31:28;;;;;;;8.13;3.58;;;8.10;99.90;;;;;;4950169;29;20206;-93
2022/05/28 03:33:57;;;;;;;7.32;3.17;;;8.20;99.90;;;;;;4942031;29;20477;-92
2022/05/28 03:36:26;;;;;;;7.03;2.10;;;8.30;99.90;;;;;;4935277;29;20603;-92
2022/05/28 03:38:56;;;;;;;18.65;3.17;;;8.50;99.90;;;;;;4931717;29;20313;-92
2022/05/28 03:41:25;;;;;;;10.38;3.00;;;8.70;99.90;;;;;;4931664;29;20252;-92
2022/05/28 03:43:53;;;;;;;17.58;3.35;;;8.70;99.90;;;;;;4929633;29;20229;-94
2022/05/28 03:46:25;;;;;;;12.55;3.50;;;8.80;99.90;;;;;;4934194;29;20210;-93
2022/05/28 03:48:57;;;;;;;12.65;2.90;;;8.70;99.90;;;;;;4936946;29;20229;-93
2022/05/28 03:51:26;;;;;;;13.38;2.90;;;8.60;99.90;;;;;;4936730;29;20221;-91
2022/05/28 03:53:56;;;;;;;10.85;3.00;;;8.40;99.90;;;;;;4936554;29;20248;-92
2022/05/28 03:56:28;;;;;;;13.25;2.92;;;8.50;99.90;;;;;;4937480;29;20225;-94
2022/05/28 03:58:57;;;;;;;10.27;2.28;;;8.40;99.90;;;;;;4938661;29;20237;-92
2022/05/28 04:01:25;;;;;;;6.82;3.53;;;8.40;99.90;;;;;;4937043;29;20288;-92
2022/05/28 04:03:53;;;;;;;8.73;2.20;;;8.40;99.90;;;;;;4936790;29;20281;-92
2022/05/28 04:06:22;;;;;;;9.30;1.95;;;8.40;99.90;;;;;;4935947;29;20240;-92
2022/05/28 04:08:50;;;;;;;8.32;2.28;;;8.30;99.90;;;;;;4934186;29;20690;-94
2022/05/28 04:11:20;;;;;;;8.63;3.25;;;8.40;99.90;;;;;;4935858;29;20342;-93
2022/05/28 04:13:52;;;;;;;10.38;2.50;;;8.50;99.90;;;;;;4936481;29;20369;-92
2022/05/28 04:16:23;;;;;;;6.25;2.70;;;8.60;99.90;;;;;;4935141;29;20205;-93
2022/05/28 04:18:51;;;;;;;8.20;2.70;;;8.70;99.90;;;;;;4935451;29;20237;-93
2022/05/28 04:21:19;;;;;;;15.55;2.97;;;8.90;99.90;;;;;;4937245;29;20613;-93
2022/05/28 04:23:48;;;;;;;17.20;3.63;;;9.00;99.90;;;;;;4936894;29;20244;-92
2022/05/28 04:26:16;;;;;;;6.63;2.40;;;9.10;99.90;;;;;;4937293;29;20229;-93
2022/05/28 04:28:46;;;;;;;19.50;3.33;;;9.30;99.90;;;;;;4936174;29;20244;-93
2022/05/28 04:31:14;;;;;;;16.27;4.00;;;9.40;99.90;;;;;;4942349;29;20209;-93
2022/05/28 04:33:43;;;;;;;11.45;2.92;;;9.50;99.90;;;;;;4942404;29;20198;-92
2022/05/28 04:36:11;;;;;;;8.68;2.50;;;9.60;99.90;;;;;;4937744;29;20296;-94
2022/05/28 04:38:39;;;;;;;8.82;3.00;;;9.50;99.90;;;;;;4935232;29;20235;-92
2022/05/28 04:41:08;;;;;;;11.63;2.92;;;9.50;99.90;;;;;;4937910;29;20280;-91
2022/05/28 04:43:36;;;;;;;21.17;3.10;;;9.70;99.90;;;;;;4936276;29;20739;-93
2022/05/28 04:46:06;;;;;;;13.65;3.80;;;9.90;99.90;;;;;;4936460;29;20202;-93
2022/05/28 04:48:35;;;;;;;10.77;4.05;;;9.90;99.90;;;;;;4937630;29;20225;-93
2022/05/28 04:51:03;;;;;;;7.00;3.10;;;10.00;99.90;;;;;;4940139;29;20205;-93
2022/05/28 04:53:32;;;;;;;15.38;3.25;;;10.10;99.90;;;;;;4941086;29;20297;-92
2022/05/28 04:56:00;;;;;;;6.85;3.38;;;10.00;99.90;;;;;;4939257;29;20746;-92
2022/05/28 04:58:28;;;;;;;16.02;4.07;;;10.00;99.90;;;;;;4940326;29;20653;-92
2022/05/28 05:00:57;;;;;;;15.50;3.55;;;9.90;99.90;;;;;;4939329;29;20236;-92
2022/05/28 05:03:27;;;;;;;13.75;3.97;;;9.80;99.90;;;;;;4940459;29;20220;-93
2022/05/28 05:05:57;;;;;;;13.88;3.58;;;9.80;99.90;;;;;;4939904;29;20212;-92
2022/05/28 05:08:25;;;;;;;7.30;3.25;;;9.70;99.90;;;;;;4941173;29;20855;-93
2022/05/28 05:10:53;;;;;;;10.10;3.00;;;9.80;99.90;;;;;;4939912;29;20623;-92
2022/05/28 05:13:21;;;;;;;16.30;4.80;;;9.80;99.90;;;;;;4937874;29;20186;-93
2022/05/28 05:15:49;;;;;;;15.90;3.83;;;9.80;99.90;;;;;;4938468;29;20317;-93
2022/05/28 05:18:18;;;;;;;11.50;4.15;;;9.80;99.90;;;;;;4936605;29;20325;-93
2022/05/28 05:20:47;;;;;;;17.27;3.38;;;9.90;99.90;;;;;;4937392;29;20234;-92
2022/05/28 05:23:18;;;;;;;11.07;3.30;;;10.00;99.90;;;;;;4937758;29;20206;-93
2022/05/28 05:25:46;;;;;;;10.98;3.65;;;10.10;99.90;;;;;;4938149;29;20594;-92
2022/05/28 05:28:14;;;;;;;10.98;3.67;;;10.10;99.90;;;;;;4938681;29;20705;-93
2022/05/28 05:30:42;;;;;;;9.43;3.55;;;10.10;99.90;;;;;;4938473;29;20436;-93
2022/05/28 05:33:11;;;;;;;14.10;3.20;;;10.10;99.90;;;;;;4953935;29;20264;-94
2022/05/28 05:35:39;;;;;;;7.05;2.75;;;10.10;99.90;;;;;;4941471;29;20222;-93
2022/05/28 05:38:11;;;;;;;13.60;3.67;;;10.10;99.90;;;;;;4938949;29;20229;-92
2022/05/28 05:40:45;;;;;;;14.18;3.13;;;10.10;99.90;;;;;;4939904;29;20198;-92
2022/05/28 05:43:13;;;;;;;7.47;3.30;;;10.10;99.90;;;;;;4938862;29;20210;-93
2022/05/28 05:45:41;;;;;;;13.63;3.70;;;10.10;99.90;;;;;;4938821;29;20213;-93
2022/05/28 05:48:15;;;;;;;10.15;2.55;;;10.20;99.90;;;;;;4940703;29;20240;-93
2022/05/28 05:50:44;;;;;;;8.07;2.85;;;10.50;99.90;;;;;;4941102;29;20202;-93
2022/05/28 05:53:13;;;;;;;5.85;2.10;;;10.70;99.90;;;;;;4940373;29;20253;-91
2022/05/28 05:55:42;;;;;;;11.23;2.42;;;11.00;99.90;;;;;;4940273;29;20228;-93
2022/05/28 05:58:11;;;;;;;10.30;3.17;;;11.00;99.90;;;;;;4940363;29;20225;-94
2022/05/28 06:00:40;;;;;;;7.78;2.40;;;11.10;99.90;;;;;;4939575;29;20214;-92
2022/05/28 06:03:17;;;;;;;7.30;2.08;;;11.20;99.90;;;;;;4936787;29;20237;-92
2022/05/28 06:05:57;;;;;;;5.28;2.97;;;11.30;99.90;;;;;;4936434;29;20202;-93
2022/05/28 06:08:39;;;;;;;7.55;2.50;;;11.30;99.90;;;;;;4935916;29;20288;-94
2022/05/28 06:11:11;;;;;;;11.52;2.70;;;11.30;99.90;;;;;;4938668;29;20352;-92
2022/05/28 06:13:40;;;;;;;5.50;2.53;;;11.30;99.90;;;;;;4939993;29;20233;-92
2022/05/28 06:16:13;;;;;;;13.70;2.30;;;11.30;99.90;;;;;;4941698;29;20465;-94
2022/05/28 06:18:42;;;;;;;9.02;2.70;;;11.20;99.90;;;;;;4941519;29;20480;-93
2022/05/28 06:21:12;;;;;;;7.25;3.08;;;11.20;99.90;;;;;;4944316;29;20300;-93
2022/05/28 06:23:50;;;;;;;6.55;2.15;;;11.20;99.90;;;;;;4940396;29;20224;-92
2022/05/28 06:26:18;;;;;;;12.10;2.50;;;11.20;99.90;;;;;;4941540;29;20388;-93
2022/05/28 06:28:53;;;;;;;11.17;2.50;;;11.20;99.90;;;;;;4940343;29;20591;-93
2022/05/28 06:31:27;;;;;;;9.93;2.80;;;11.40;99.90;;;;;;4937965;29;20972;-93
2022/05/28 06:33:58;;;;;;;5.25;2.45;;;11.40;99.90;;;;;;4950558;29;20233;-93
2022/05/28 06:36:33;;;;;;;6.23;2.63;;;11.60;99.90;;;;;;4941955;29;20221;-93
2022/05/28 06:39:03;;;;;;;8.57;2.47;;;11.80;99.90;;;;;;4942159;29;20485;-93
2022/05/28 06:41:35;;;;;;;10.45;2.15;;;11.90;99.90;;;;;;4943068;29;20448;-94
2022/05/28 06:44:13;;;;;;;10.87;2.67;;;12.10;99.90;;;;;;4945410;29;20309;-93
2022/05/28 06:46:46;;;;;;;9.90;2.67;;;12.20;99.90;;;;;;4944256;29;20448;-93
2022/05/28 06:49:16;;;;;;;5.60;2.40;;;12.40;99.90;;;;;;4944949;29;20716;-93
2022/05/28 06:51:58;;;;;;;7.53;2.40;;;12.50;99.90;;;;;;4942808;29;20479;-95
2022/05/28 06:54:38;;;;;;;6.80;2.10;;;12.60;99.90;;;;;;4945471;29;20738;-92
2022/05/28 06:57:14;;;;;;;4.23;2.00;;;12.60;99.90;;;;;;4943066;29;20454;-94
2022/05/28 06:59:52;;;;;;;8.67;2.93;;;12.40;99.90;;;;;;4943584;29;20937;-93
2022/05/28 07:02:23;;;;;;;13.63;3.00;;;12.40;99.90;;;;;;4944758;29;20665;-93
2022/05/28 07:04:52;;;;;;;5.47;2.40;;;12.30;99.90;;;;;;4944778;29;20521;-94
2022/05/28 07:07:20;;;;;;;3.73;2.17;;;12.30;99.90;;;;;;4949860;29;20453;-94
2022/05/28 07:09:57;;;;;;;5.73;2.47;;;12.30;99.90;;;;;;4952100;29;20450;-92
2022/05/28 07:12:26;;;;;;;5.77;2.87;;;12.40;99.90;;;;;;4952283;29;20454;-93
2022/05/28 07:15:05;;;;;;;12.90;2.20;;;12.60;99.90;;;;;;4952759;29;20437;-93
2022/05/28 07:20:30;;;;;;;8.27;3.37;;;12.90;99.90;;;;;;4945987;29;20575;-93
2022/05/28 07:22:59;;;;;;;5.57;2.37;;;12.80;99.90;;;;;;4949014;29;20460;-95
2022/05/28 07:25:40;;;;;;;7.37;2.83;;;12.80;99.90;;;;;;4953436;29;20485;-92
2022/05/28 07:28:37;;;;;;;8.83;2.90;;;12.60;99.90;;;;;;4949643;29;20537;-94
2022/05/28 07:31:20;;;;;;;9.03;2.30;;;12.50;99.90;;;;;;4949469;29;20506;-94
2022/05/28 07:34:22;;;;;;;7.33;2.00;;;12.70;99.90;;;;;;4949212;29;20710;-95
2022/05/28 07:36:52;;;;;;;4.87;2.40;;;13.10;99.90;;;;;;4952466;29;20469;-93
2022/05/28 07:39:21;;;;;;;11.07;3.27;;;13.00;99.90;;;;;;4951167;29;20453;-93
2022/05/28 07:42:04;;;;;;;9.73;2.67;;;12.80;99.90;;;;;;4948051;29;20449;-92
2022/05/28 07:44:38;;;;;;;9.00;3.60;;;12.60;99.90;;;;;;4949423;29;20551;-92
2022/05/28 07:47:46;;;;;;;9.60;3.13;;;12.40;99.90;;;;;;4935722;29;20707;-93
2022/05/28 07:50:15;;;;;;;6.30;2.80;;;12.40;99.90;;;;;;4950708;29;20483;-94
2022/05/28 07:53:17;;;;;;;11.10;3.00;;;12.50;99.90;;;;;;4950515;29;20465;-92
2022/05/28 07:56:00;;;;;;;9.20;3.07;;;12.60;99.90;;;;;;4950867;29;20477;-92
2022/05/28 07:58:41;;;;;;;10.50;2.10;;;12.70;99.90;;;;;;4951537;29;20465;-92
2022/05/28 08:01:25;;;;;;;11.03;2.23;;;12.70;99.90;;;;;;4951782;29;20441;-92
2022/05/28 08:04:30;;;;;;;5.57;2.47;;;12.60;99.90;;;;;;4950334;29;20453;-93
2022/05/28 08:07:20;;;;;;;11.50;2.47;;;12.60;99.90;;;;;;4951752;29;20445;-93
2022/05/28 08:09:50;;;;;;;9.93;3.00;;;12.60;99.90;;;;;;4960660;23;20530;-71
2022/05/28 08:12:18;;;;;;;10.73;2.87;;;12.50;99.90;;;;;;4942003;29;21102;-71
2022/05/28 08:14:47;;;;;;;14.03;2.83;;;12.50;99.90;;;;;;4940899;28;20459;-69
2022/05/28 08:17:15;;;;;;;7.20;2.70;;;12.60;99.90;;;;;;4940174;29;20481;-72
2022/05/28 08:19:44;;;;;;;10.90;3.90;;;12.70;99.90;;;;;;4940314;28;20793;-72
2022/05/28 08:24:56;;;;;;;9.23;2.80;;;13.00;99.90;;;;;;4919531;28;20449;-71
2022/05/28 08:27:24;;;;;;;7.90;2.87;;;13.40;99.90;;;;;;4940284;29;20449;-71
2022/05/28 08:29:53;;;;;;;12.43;3.23;;;13.60;99.90;;;;;;4940645;28;20455;-71
2022/05/28 08:32:21;;;;;;;15.90;3.40;;;13.70;99.90;;;;;;4940941;28;20472;-71
2022/05/28 08:34:48;;;;;;;16.00;3.00;;;13.70;99.90;;;;;;4940465;28;21161;-71
2022/05/28 08:37:16;;;;;;;5.70;2.40;;;13.20;99.90;;;;;;4940504;28;20544;-69
2022/05/28 08:39:44;;;;;;;7.27;2.03;;;12.80;99.90;;;;;;4940717;29;20611;-72
2022/05/28 08:42:14;;;;;;;6.87;1.90;;;12.40;99.90;;;;;;4940215;29;21055;-71
2022/05/28 08:44:44;;;;;;;6.60;2.30;;;12.10;99.90;;;;;;4940302;29;20673;-70
2022/05/28 08:47:21;;;;;;;7.37;2.37;;;12.00;99.90;;;;;;4939961;29;20670;-71
2022/05/28 08:49:51;;;;;;;9.23;3.10;;;11.90;99.90;;;;;;4939952;29;20472;-71
2022/05/28 08:52:23;;;;;;;12.40;3.30;;;11.70;99.90;;;;;;4940005;29;20544;-70
2022/05/28 08:55:00;;;;;;;8.23;3.90;;;11.70;99.90;;;;;;4940022;29;21012;-71
2022/05/28 08:57:38;;;;;;;10.33;2.77;;;11.90;99.90;;;;;;4940209;28;20511;-71
2022/05/28 09:00:10;;;;;;;7.80;1.90;;;12.00;99.90;;;;;;4941370;29;20451;-71
2022/05/28 09:02:42;;;;;;;8.33;2.33;;;12.00;99.90;;;;;;4941707;29;20755;-71
2022/05/28 09:05:20;;;;;;;5.03;1.97;;;11.80;99.90;;;;;;4940897;29;20644;-71
2022/05/28 09:07:49;;;;;;;9.13;1.95;;;11.60;99.90;;;;;;4940708;29;20682;-71
2022/05/28 09:10:17;;;;;;;7.57;1.87;;;11.50;99.90;;;;;;4939610;29;20876;-70
2022/05/28 09:12:51;;;;;;;5.03;2.37;;;11.40;99.90;;;;;;4939564;28;20480;-71
2022/05/28 09:15:19;;;;;;;8.63;2.75;;;11.40;99.90;;;;;;4940260;29;20444;-70
2022/05/28 09:17:52;;;;;;;6.00;2.40;;;11.40;99.90;;;;;;4939788;28;20720;-72
2022/05/28 09:20:23;;;;;;;8.70;2.47;;;11.30;99.90;;;;;;4940325;29;20292;-70
2022/05/28 09:22:51;;;;;;;11.20;2.50;;;11.40;99.90;;;;;;4939569;29;20547;-71
2022/05/28 09:25:23;;;;;;;11.57;4.07;;;11.60;99.90;;;;;;4939398;28;20444;-71
2022/05/28 09:28:00;;;;;;;5.53;2.27;;;11.90;99.90;;;;;;4939439;28;20952;-71
2022/05/28 09:30:41;;;;;;;6.30;2.20;;;12.10;99.90;;;;;;4939758;28;20455;-71
2022/05/28 09:33:43;;;;;;;9.23;3.70;;;12.30;99.90;;;;;;4939459;29;20802;-71
2022/05/28 09:36:17;;;;;;;9.10;3.13;;;12.50;99.90;;;;;;4908443;28;20470;-71
2022/05/28 09:38:55;;;;;;;8.50;2.83;;;12.30;99.90;;;;;;4943630;29;20451;-71
2022/05/28 09:41:45;;;;;;;8.60;2.47;;;12.00;99.90;;;;;;4942905;29;20468;-72
2022/05/28 09:44:22;;;;;;;12.82;2.35;;;11.60;99.90;;;;;;4943434;29;21061;-72
2022/05/28 09:46:50;;;;;;;5.30;2.03;;;11.40;99.90;;;;;;4943527;29;20475;-71
2022/05/28 09:49:21;;;;;;;10.70;3.50;;;11.30;99.90;;;;;;4944386;29;21010;-72
2022/05/28 09:51:55;;;;;;;5.60;2.50;;;11.30;99.90;;;;;;4943999;29;20460;-72
2022/05/28 09:54:25;;;;;;;17.55;3.67;;;11.40;99.90;;;;;;4944146;28;20240;-71
2022/05/28 09:56:57;;;;;;;9.80;3.17;;;11.60;99.90;;;;;;4945088;28;20480;-71
2022/05/28 09:59:32;;;;;;;13.57;2.90;;;11.80;99.90;;;;;;4946201;28;20481;-71
2022/05/28 10:02:07;;;;;;;8.10;2.83;;;12.10;99.90;;;;;;4944610;29;20490;-71
2022/05/28 10:04:48;;;;;;;7.53;3.40;;;12.30;99.90;;;;;;4943274;29;20461;-72
2022/05/28 10:07:27;;;;;;;18.83;3.00;;;12.60;99.90;;;;;;4943294;29;20437;-71
2022/05/28 10:09:55;;;;;;;11.40;2.60;;;12.80;99.90;;;;;;4942969;28;20571;-71
2022/05/28 10:12:25;;;;;;;7.03;2.10;;;13.10;99.90;;;;;;4942775;29;20742;-71
2022/05/28 10:15:01;;;;;;;9.33;2.23;;;13.40;99.90;;;;;;4942905;29;21014;-71
2022/05/28 10:17:32;;;;;;;8.37;2.10;;;13.60;99.90;;;;;;4941882;28;20559;-71
2022/05/28 10:20:05;;;;;;;15.43;2.90;;;13.70;99.90;;;;;;4942135;29;20523;-71
2022/05/28 10:22:38;;;;;;;7.27;1.87;;;13.70;99.90;;;;;;4941765;29;20459;-71
2022/05/28 10:25:22;;;;;;;4.43;1.83;;;13.70;99.90;;;;;;4941753;29;20440;-71
2022/05/28 10:27:52;;;;;;;20.10;4.53;;;13.80;99.90;;;;;;4942344;29;20441;-71
2022/05/28 10:30:26;;;;;;;5.80;2.00;;;13.70;99.90;;;;;;4942450;28;20536;-71
2022/05/28 10:32:54;;;;;;;8.23;2.53;;;13.90;99.90;;;;;;4941849;29;20520;-71
2022/05/28 10:35:26;;;;;;;9.17;1.93;;;14.00;99.90;;;;;;4941789;28;20459;-71
2022/05/28 10:38:05;;;;;;;5.90;1.80;;;14.10;99.90;;;;;;4941685;28;20796;-71
2022/05/28 10:40:33;;;;;;;7.60;2.33;;;14.20;99.90;;;;;;4942340;29;20459;-70
2022/05/28 10:43:06;;;;;;;5.27;1.97;;;14.40;99.90;;;;;;4942225;28;20449;-72
2022/05/28 10:45:40;;;;;;;5.90;1.73;;;14.40;99.90;;;;;;4942054;29;21128;-71
2022/05/28 10:48:27;;;;;;;9.00;2.27;;;14.40;99.90;;;;;;4941733;28;20724;-71
2022/05/28 10:51:10;;;;;;;10.33;2.13;;;14.40;99.90;;;;;;4941812;29;20703;-70
2022/05/28 10:54:00;;;;;;;7.20;2.50;;;14.50;99.90;;;;;;4941810;29;20487;-71
2022/05/28 10:56:47;;;;;;;7.10;2.03;;;14.50;99.90;;;;;;4941270;29;20441;-71
2022/05/28 10:59:34;;;;;;;8.87;2.43;;;14.60;99.90;;;;;;4941366;29;20571;-71
2022/05/28 11:02:10;;;;;;;9.10;2.90;;;14.80;99.90;;;;;;4941924;29;20963;-70
2022/05/28 11:04:50;;;;;;;5.77;2.40;;;14.90;99.90;;;;;;4941768;29;20455;-70
2022/05/28 11:07:38;;;;;;;6.60;1.50;;;14.90;99.90;;;;;;4941431;29;20940;-71
2022/05/28 11:10:32;;;;;;;9.80;2.70;;;15.00;99.90;;;;;;4941177;29;20460;-70
2022/05/28 11:13:22;;;;;;;5.57;2.37;;;15.10;99.90;;;;;;4940989;29;20729;-70
2022/05/28 11:16:20;;;;;;;7.03;2.17;;;15.30;99.90;;;;;;4941136;28;20437;-70
2022/05/28 11:19:06;;;;;;;7.60;2.53;;;15.30;99.90;;;;;;4941208;28;20766;-70
2022/05/28 11:21:50;;;;;;;15.10;3.30;;;15.40;99.90;;;;;;4940796;29;20461;-70
2022/05/28 11:24:45;;;;;;;7.13;3.23;;;15.00;99.90;;;;;;4941286;29;20475;-70
2022/05/28 11:27:26;;;;;;;12.07;3.00;;;14.50;99.90;;;;;;4931275;28;20826;-70
2022/05/28 11:30:12;;;;;;;11.10;2.67;;;13.70;99.90;;;;;;4941303;29;20429;-70
2022/05/28 11:32:45;;;;;;;8.53;2.60;;;13.00;99.90;;;;;;4940827;29;20539;-69
2022/05/28 11:35:20;;;;;;;13.17;2.50;;;12.30;99.90;;;;;;4940782;29;20548;-70
2022/05/28 11:37:53;;;;;;;15.67;2.70;;;11.90;99.90;;;;;;4940955;29;20494;-69
2022/05/28 11:40:25;;;;;;;13.23;3.30;;;11.70;99.90;;;;;;4940905;29;20959;-69
2022/05/28 11:42:59;;;;;;;11.43;3.47;;;11.50;99.90;;;;;;4941732;29;20532;-70
2022/05/28 11:45:38;;;;;;;11.35;3.58;;;11.60;99.90;;;;;;4941293;29;20455;-68
2022/05/28 11:48:11;;;;;;;16.37;3.63;;;11.60;99.90;;;;;;4941416;29;20299;-69
2022/05/28 11:53:34;;;;;;;8.63;3.40;;;11.90;99.90;;;;;;4940345;29;20455;-71
2022/05/28 11:56:07;;;;;;;20.37;4.10;;;11.90;99.90;;;;;;4940567;29;20448;-69
2022/05/28 11:58:41;;;;;;;8.80;3.07;;;11.90;99.90;;;;;;4941036;29;20480;-71
2022/05/28 12:01:13;;;;;;;20.13;4.83;;;12.00;99.90;;;;;;4940908;28;20480;-70
2022/05/28 12:03:45;;;;;;;17.87;5.00;;;12.20;99.90;;;;;;4941963;28;20589;-71
2022/05/28 12:06:26;;;;;;;17.10;4.73;;;12.50;99.90;;;;;;4940923;29;20555;-70
2022/05/28 12:09:09;;;;;;;16.10;3.33;;;12.80;99.90;;;;;;4940825;29;20959;-70
2022/05/28 12:11:46;;;;;;;10.33;3.13;;;13.10;99.90;;;;;;4939908;29;20742;-70
2022/05/28 12:14:25;;;;;;;7.10;3.07;;;13.30;99.90;;;;;;4940326;29;20536;-70
2022/05/28 12:17:02;;;;;;;7.67;2.53;;;13.40;99.90;;;;;;4940005;29;20468;-71
2022/05/28 12:19:31;;;;;;;9.63;2.87;;;13.70;99.90;;;;;;4940579;28;20476;-70
2022/05/28 12:22:09;;;;;;;14.03;3.33;;;13.90;99.90;;;;;;4939857;29;20646;-70
2022/05/28 12:24:40;;;;;;;8.73;2.93;;;13.90;99.90;;;;;;4940528;29;21115;-71
2022/05/28 12:27:24;;;;;;;5.80;2.00;;;13.80;99.90;;;;;;4941036;29;20532;-71
2022/05/28 12:30:00;;;;;;;6.40;2.30;;;13.80;99.90;;;;;;4940160;29;20463;-70
2022/05/28 12:32:31;;;;;;;10.20;3.13;;;13.80;99.90;;;;;;4940100;29;20928;-70
2022/05/28 12:35:01;;;;;;;9.73;3.43;;;13.80;99.90;;;;;;4939879;29;20523;-70
2022/05/28 12:37:39;;;;;;;6.90;2.20;;;13.90;99.90;;;;;;4940131;29;20448;-70
2022/05/28 12:40:23;;;;;;;6.20;1.70;;;14.10;99.90;;;;;;4940119;29;20514;-70
2022/05/28 12:42:53;;;;;;;8.60;2.20;;;14.30;99.90;;;;;;4940515;29;21020;-71
2022/05/28 12:45:36;;;;;;;4.80;1.93;;;14.50;99.90;;;;;;4940203;29;20706;-70
2022/05/28 12:48:07;;;;;;;6.87;2.23;;;14.70;99.90;;;;;;4940995;29;20628;-70
2022/05/28 12:50:48;;;;;;;5.07;1.80;;;14.70;99.90;;;;;;4940264;28;20875;-70
2022/05/28 12:53:19;;;;;;;22.93;2.90;;;14.40;99.90;;;;;;4940890;29;20562;-70
2022/05/28 12:55:58;;;;;;;5.77;2.13;;;14.30;99.90;;;;;;4940282;29;20592;-69
2022/05/28 12:58:30;;;;;;;3.33;1.60;;;14.30;99.90;;;;;;4940110;28;20480;-69
2022/05/28 13:01:01;;;;;;;6.33;2.40;;;14.30;99.90;;;;;;4940446;29;20999;-69
2022/05/28 13:03:33;;;;;;;6.60;2.50;;;14.30;99.90;;;;;;4940510;28;20465;-69
2022/05/28 13:06:08;;;;;;;8.23;1.57;;;14.40;99.90;;;;;;4940187;29;20951;-70
2022/05/28 13:08:45;;;;;;;4.40;2.03;;;14.50;99.90;;;;;;4939880;29;20735;-68
2022/05/28 13:11:27;;;;;;;8.10;2.20;;;14.50;99.90;;;;;;4941261;28;20486;-71
2022/05/28 13:14:19;;;;;;;7.50;2.00;;;14.50;99.90;;;;;;4943627;29;20959;-70
2022/05/28 13:17:08;;;;;;;8.30;2.27;;;14.40;99.90;;;;;;4943806;29;20441;-70
2022/05/28 13:19:54;;;;;;;8.37;2.87;;;14.40;99.90;;;;;;4943767;29;20484;-70
2022/05/28 13:22:40;;;;;;;11.20;1.70;;;14.40;99.90;;;;;;4943336;29;20464;-70
2022/05/28 13:25:23;;;;;;;6.70;2.00;;;14.40;99.90;;;;;;4945825;29;20528;-70
2022/05/28 13:28:19;;;;;;;8.00;2.60;;;14.50;99.90;;;;;;4947046;29;20450;-70
2022/05/28 13:30:52;;;;;;;8.93;2.40;;;14.50;99.90;;;;;;4932811;28;20914;-70
2022/05/28 13:33:21;;;;;;;11.50;2.97;;;14.60;99.90;;;;;;4945889;28;20436;-70